Time;durP1;ratioP1;P1;durP2;ratioP2;P2;SDS_P1;SDS_P2;PMS_P1;PMS_P2;Temp;Humidity;BMP_temperature;BMP_pressure;BME280_temperature;BME280_humidity;BME280_pressure;Samples;Min_cycle;Max_cycle;Signal;HPM_P1;HPM_P2
2021/12/02 00:02:22;;;;;;;3.45;1.83;;;21.80;32.20;;;;;;5017571;28;20037;-57
2021/12/02 00:04:48;;;;;;;2.88;1.58;;;21.80;32.30;;;;;;5029327;28;20048;-55
2021/12/02 00:07:14;;;;;;;3.47;1.90;;;21.80;32.30;;;;;;5032834;28;20464;-50
2021/12/02 00:09:40;;;;;;;1.98;1.58;;;21.80;32.20;;;;;;5036345;28;20029;-53
2021/12/02 00:12:07;;;;;;;2.75;1.58;;;21.80;32.20;;;;;;5029222;28;20030;-56
2021/12/02 00:14:40;;;;;;;3.30;1.83;;;21.80;32.30;;;;;;5015999;28;20026;-52
2021/12/02 00:17:15;;;;;;;2.83;1.70;;;21.80;32.20;;;;;;5025247;28;20111;-52
2021/12/02 00:22:28;;;;;;;2.72;1.42;;;21.80;32.20;;;;;;5016134;28;20442;-51
2021/12/02 00:25:03;;;;;;;2.97;1.48;;;21.80;32.20;;;;;;5016267;28;20049;-54
2021/12/02 00:27:30;;;;;;;2.35;1.50;;;21.80;32.20;;;;;;5024810;28;20098;-52
2021/12/02 00:29:58;;;;;;;3.08;1.70;;;21.80;32.30;;;;;;5035937;28;20029;-50
2021/12/02 00:32:30;;;;;;;1.70;1.30;;;21.80;32.20;;;;;;5027177;28;20030;-52
2021/12/02 00:34:57;;;;;;;3.45;1.55;;;21.80;32.20;;;;;;5016575;28;20030;-50
2021/12/02 00:37:23;;;;;;;1.85;1.23;;;21.70;32.20;;;;;;5028869;28;20046;-54
2021/12/02 00:39:51;;;;;;;3.47;1.55;;;21.70;32.20;;;;;;5024290;28;20041;-48
2021/12/02 00:42:17;;;;;;;2.30;1.30;;;21.70;32.30;;;;;;5028329;28;20039;-53
2021/12/02 00:44:44;;;;;;;2.72;1.40;;;21.70;32.30;;;;;;5031734;28;20346;-52
2021/12/02 00:47:10;;;;;;;2.55;1.23;;;21.70;32.40;;;;;;5033512;28;20029;-52
2021/12/02 00:49:36;;;;;;;2.00;1.17;;;21.70;32.30;;;;;;5025396;28;20040;-51
2021/12/02 00:52:03;;;;;;;1.70;1.10;;;21.70;32.40;;;;;;5022108;28;20037;-54
2021/12/02 00:54:31;;;;;;;1.92;1.17;;;21.70;32.40;;;;;;5032472;28;20029;-56
2021/12/02 00:56:57;;;;;;;2.72;1.33;;;21.70;32.40;;;;;;5031703;28;20025;-49
2021/12/02 00:59:27;;;;;;;1.80;0.98;;;21.70;32.40;;;;;;5018556;28;20041;-50
2021/12/02 01:01:53;;;;;;;3.03;1.40;;;21.70;32.40;;;;;;5015689;28;20042;-51
2021/12/02 01:04:23;;;;;;;2.58;1.30;;;21.70;32.40;;;;;;5014678;28;20121;-51
2021/12/02 01:06:49;;;;;;;1.63;1.08;;;21.70;32.50;;;;;;5021325;28;20372;-53
2021/12/02 01:09:15;;;;;;;3.03;1.02;;;21.70;32.50;;;;;;5035179;28;20326;-50
2021/12/02 01:11:42;;;;;;;1.52;1.10;;;21.70;32.50;;;;;;5034297;28;20036;-50
2021/12/02 01:14:09;;;;;;;2.45;1.20;;;21.70;32.50;;;;;;5035554;28;20048;-51
2021/12/02 01:16:35;;;;;;;2.55;1.08;;;21.70;32.50;;;;;;5033393;28;20390;-50
2021/12/02 01:19:03;;;;;;;1.60;0.98;;;21.70;32.50;;;;;;5024729;28;20045;-53
2021/12/02 01:21:29;;;;;;;2.05;1.15;;;21.70;32.50;;;;;;5017285;28;20022;-53
2021/12/02 01:23:59;;;;;;;2.63;1.02;;;21.70;32.50;;;;;;5035129;28;20025;-52
2021/12/02 01:26:27;;;;;;;1.35;0.93;;;21.70;32.50;;;;;;5033067;28;20029;-54
2021/12/02 01:28:53;;;;;;;2.88;1.20;;;21.70;32.50;;;;;;5014977;28;20117;-52
2021/12/02 01:31:20;;;;;;;2.17;1.23;;;21.60;32.50;;;;;;5016112;28;20057;-56
2021/12/02 01:33:46;;;;;;;1.83;1.00;;;21.60;32.50;;;;;;5035322;28;20432;-54
2021/12/02 01:36:12;;;;;;;1.85;1.10;;;21.70;33.20;;;;;;5033233;28;20507;-53
2021/12/02 01:38:38;;;;;;;1.90;1.10;;;21.60;32.50;;;;;;5015785;28;20092;-54
2021/12/02 01:41:05;;;;;;;1.77;0.90;;;21.60;32.50;;;;;;5015644;28;20033;-53
2021/12/02 01:43:46;;;;;;;1.27;0.70;;;21.60;32.50;;;;;;5027626;28;20026;-54
2021/12/02 01:46:14;;;;;;;1.75;0.95;;;21.60;32.50;;;;;;5016817;28;20104;-51
2021/12/02 01:48:42;;;;;;;2.40;1.00;;;21.60;32.60;;;;;;5017270;28;20104;-53
2021/12/02 01:51:13;;;;;;;1.75;1.00;;;21.60;32.60;;;;;;5015533;28;20026;-54
2021/12/02 01:53:40;;;;;;;2.05;1.08;;;21.60;32.60;;;;;;5024572;28;20076;-51
2021/12/02 01:56:17;;;;;;;1.88;0.82;;;21.60;32.70;;;;;;5031868;28;20029;-54
2021/12/02 01:58:47;;;;;;;1.50;0.73;;;21.60;32.60;;;;;;5032939;28;20368;-50
2021/12/02 02:01:23;;;;;;;1.98;1.00;;;21.60;32.70;;;;;;5037050;28;20176;-51
2021/12/02 02:03:51;;;;;;;2.33;0.98;;;21.60;32.70;;;;;;5020665;28;20460;-47
2021/12/02 02:06:38;;;;;;;1.33;0.77;;;21.50;32.70;;;;;;5019764;28;20598;-52
2021/12/02 02:09:07;;;;;;;1.27;0.68;;;21.50;32.70;;;;;;5018629;28;20029;-53
2021/12/02 02:11:33;;;;;;;1.27;0.70;;;21.50;33.40;;;;;;5019744;28;20064;-50
2021/12/02 02:14:00;;;;;;;1.33;0.82;;;21.50;32.80;;;;;;5037302;28;20111;-50
2021/12/02 02:16:27;;;;;;;1.15;0.77;;;21.50;32.80;;;;;;5034385;28;20025;-50
2021/12/02 02:18:55;;;;;;;1.98;0.90;;;21.50;32.80;;;;;;5023612;28;20113;-48
2021/12/02 02:21:23;;;;;;;1.67;0.80;;;21.50;32.80;;;;;;5033771;28;20040;-50
2021/12/02 02:23:56;;;;;;;1.10;0.60;;;21.50;32.80;;;;;;5038509;28;20037;-56
2021/12/02 02:26:28;;;;;;;1.13;0.80;;;21.50;32.90;;;;;;5035875;28;20029;-53
2021/12/02 02:28:58;;;;;;;1.50;0.70;;;21.50;32.90;;;;;;5018301;28;20038;-51
2021/12/02 02:31:27;;;;;;;1.65;0.57;;;21.50;32.90;;;;;;5019045;28;20026;-55
2021/12/02 02:33:53;;;;;;;2.00;0.95;;;21.50;32.90;;;;;;5017905;28;20030;-52
2021/12/02 02:36:22;;;;;;;1.55;0.70;;;21.50;32.90;;;;;;5023019;28;20348;-50
2021/12/02 02:38:56;;;;;;;1.83;0.93;;;21.50;32.90;;;;;;5018340;28;20045;-50
2021/12/02 02:41:27;;;;;;;0.85;0.45;;;21.40;32.90;;;;;;5020005;28;20368;-54
2021/12/02 02:43:57;;;;;;;1.77;0.60;;;21.40;32.90;;;;;;5036275;28;20367;-55
2021/12/02 02:46:32;;;;;;;0.98;0.73;;;21.40;32.90;;;;;;5032727;28;20033;-50
2021/12/02 02:48:59;;;;;;;0.82;0.50;;;21.40;32.90;;;;;;5018565;28;20033;-49
2021/12/02 02:51:26;;;;;;;0.88;0.80;;;21.40;33.00;;;;;;5027106;28;20067;-53
2021/12/02 02:53:55;;;;;;;1.48;0.80;;;21.40;33.00;;;;;;5037132;28;20053;-50
2021/12/02 02:56:23;;;;;;;1.42;0.80;;;21.40;33.00;;;;;;5029625;28;20025;-52
2021/12/02 02:59:03;;;;;;;1.13;0.60;;;21.40;33.00;;;;;;5030642;28;20081;-53
2021/12/02 03:09:06;;;;;;;1.38;0.70;;;21.40;33.10;;;;;;5026910;28;20056;-54
2021/12/02 03:11:45;;;;;;;1.58;0.63;;;21.40;33.10;;;;;;5036501;28;20090;-52
2021/12/02 03:14:17;;;;;;;1.13;0.63;;;21.40;33.70;;;;;;5025832;28;20036;-52
2021/12/02 03:16:46;;;;;;;1.20;0.60;;;21.40;33.10;;;;;;5017369;28;20037;-49
2021/12/02 03:19:21;;;;;;;0.77;0.47;;;21.40;33.10;;;;;;5022806;28;20103;-52
2021/12/02 03:21:47;;;;;;;0.80;0.50;;;21.40;33.10;;;;;;5020837;28;20022;-52
2021/12/02 03:24:13;;;;;;;0.70;0.40;;;21.40;33.10;;;;;;5022378;28;20061;-51
2021/12/02 03:26:40;;;;;;;0.50;0.30;;;21.40;33.10;;;;;;5018462;28;20048;-55
2021/12/02 03:29:06;;;;;;;0.65;0.32;;;21.40;33.10;;;;;;5016596;28;20365;-52
2021/12/02 03:31:33;;;;;;;0.90;0.40;;;21.40;33.10;;;;;;5029484;28;20048;-53
2021/12/02 03:34:00;;;;;;;0.98;0.50;;;21.40;33.10;;;;;;5036862;28;20513;-50
2021/12/02 03:36:26;;;;;;;1.42;0.40;;;21.40;33.10;;;;;;5022220;28;20330;-49
2021/12/02 03:38:52;;;;;;;0.50;0.30;;;21.30;33.60;;;;;;5032459;28;20376;-53
2021/12/02 03:41:18;;;;;;;2.42;0.65;;;21.30;33.00;;;;;;5030504;28;20120;-54
2021/12/02 03:43:47;;;;;;;0.70;0.38;;;21.30;33.00;;;;;;5017292;28;20047;-53
2021/12/02 03:46:16;;;;;;;0.98;0.30;;;21.30;33.00;;;;;;5017481;28;20109;-55
2021/12/02 03:48:42;;;;;;;0.85;0.50;;;21.30;32.90;;;;;;5035299;28;20045;-53
2021/12/02 03:51:09;;;;;;;0.80;0.43;;;21.30;33.00;;;;;;5033188;28;20033;-54
2021/12/02 03:53:36;;;;;;;0.47;0.35;;;21.30;33.00;;;;;;5018718;28;20116;-55
2021/12/02 03:56:06;;;;;;;0.68;0.35;;;21.30;32.90;;;;;;5026780;28;20559;-55
2021/12/02 03:58:32;;;;;;;1.20;0.40;;;21.30;32.90;;;;;;5036419;28;20092;-53
2021/12/02 04:00:58;;;;;;;0.73;0.30;;;21.30;32.90;;;;;;5025841;28;20038;-54
2021/12/02 04:03:24;;;;;;;0.60;0.22;;;21.30;32.90;;;;;;5016318;28;20056;-51
2021/12/02 04:05:50;;;;;;;0.73;0.40;;;21.30;32.90;;;;;;5023738;28;20083;-54
2021/12/02 04:08:16;;;;;;;0.40;0.30;;;21.30;32.90;;;;;;5036407;28;20192;-49
2021/12/02 04:10:43;;;;;;;0.47;0.25;;;21.30;32.90;;;;;;5028961;28;20037;-48
2021/12/02 04:15:42;;;;;;;0.52;0.20;;;21.30;32.80;;;;;;5021014;28;20095;-50
2021/12/02 04:18:08;;;;;;;0.43;0.20;;;21.30;32.90;;;;;;5016588;28;20484;-52
2021/12/02 04:20:36;;;;;;;0.30;0.20;;;21.20;32.80;;;;;;5028493;28;20449;-52
2021/12/02 04:23:02;;;;;;;0.68;0.40;;;21.20;32.80;;;;;;5028719;28;20361;-48
2021/12/02 04:25:28;;;;;;;0.60;0.20;;;21.20;32.80;;;;;;5033951;28;20352;-52
2021/12/02 04:27:55;;;;;;;0.65;0.20;;;21.20;32.80;;;;;;5016911;28;20041;-51
2021/12/02 04:30:23;;;;;;;0.77;0.10;;;21.20;32.80;;;;;;5026874;28;20032;-53
2021/12/02 04:32:49;;;;;;;0.45;0.25;;;21.20;32.80;;;;;;5017068;28;20441;-54
2021/12/02 04:35:15;;;;;;;0.40;0.20;;;21.20;32.80;;;;;;5019555;28;20032;-50
2021/12/02 04:37:43;;;;;;;0.60;0.25;;;21.20;32.80;;;;;;5015884;28;20108;-50
2021/12/02 04:40:11;;;;;;;0.10;0.10;;;21.20;32.80;;;;;;5026204;28;20133;-52
2021/12/02 04:42:38;;;;;;;0.35;0.22;;;21.20;32.80;;;;;;5020137;28;20037;-50
2021/12/02 04:45:04;;;;;;;0.38;0.22;;;21.20;32.80;;;;;;5024884;28;20030;-51
2021/12/02 04:47:30;;;;;;;0.70;0.30;;;21.20;32.80;;;;;;5034555;28;20048;-53
2021/12/02 04:49:56;;;;;;;0.60;0.20;;;21.20;32.80;;;;;;5024806;28;20029;-52
2021/12/02 04:52:22;;;;;;;1.27;0.20;;;21.20;32.80;;;;;;5034005;28;20096;-51
2021/12/02 04:54:48;;;;;;;0.20;0.20;;;21.20;32.80;;;;;;5028459;28;20043;-54
2021/12/02 04:57:14;;;;;;;0.60;0.20;;;21.20;32.80;;;;;;5035203;28;20033;-51
2021/12/02 04:59:40;;;;;;;0.28;0.20;;;21.10;32.70;;;;;;5027479;28;20048;-48
2021/12/02 05:02:05;;;;;;;0.20;0.13;;;21.20;32.80;;;;;;5019954;28;20046;-49
2021/12/02 05:04:31;;;;;;;0.30;0.17;;;21.20;32.80;;;;;;5024893;28;20358;-54
2021/12/02 05:06:57;;;;;;;0.20;0.20;;;21.20;32.80;;;;;;5032953;28;20029;-50
2021/12/02 05:09:23;;;;;;;0.50;0.20;;;21.20;32.80;;;;;;5026460;28;20326;-54
2021/12/02 05:11:49;;;;;;;0.32;0.20;;;21.20;32.80;;;;;;5027358;28;20512;-55
2021/12/02 05:14:14;;;;;;;0.47;0.20;;;21.10;32.70;;;;;;5029708;28;20183;-49
2021/12/02 05:16:40;;;;;;;0.70;0.20;;;21.10;32.70;;;;;;5023562;28;20468;-52
2021/12/02 05:19:07;;;;;;;0.43;0.20;;;21.10;32.70;;;;;;5017523;28;20041;-49
2021/12/02 05:21:33;;;;;;;0.30;0.30;;;21.10;32.70;;;;;;5015492;28;20030;-50
2021/12/02 05:23:58;;;;;;;1.27;0.20;;;21.20;32.80;;;;;;5020034;28;20036;-48
2021/12/02 05:26:25;;;;;;;0.65;0.38;;;21.20;32.80;;;;;;5025233;28;20041;-53
2021/12/02 05:28:52;;;;;;;0.80;0.20;;;21.10;32.80;;;;;;5030048;28;20456;-50
2021/12/02 05:31:19;;;;;;;0.47;0.20;;;21.10;32.80;;;;;;5030069;28;20112;-55
2021/12/02 05:33:45;;;;;;;0.28;0.28;;;21.10;32.80;;;;;;5034169;28;20021;-50
2021/12/02 05:36:11;;;;;;;0.40;0.20;;;21.10;32.80;;;;;;5033729;28;20353;-51
2021/12/02 05:38:38;;;;;;;0.10;0.10;;;21.10;32.70;;;;;;5032018;28;20089;-51
2021/12/02 05:41:04;;;;;;;0.50;0.10;;;21.10;32.70;;;;;;5015234;28;20033;-51
2021/12/02 05:43:30;;;;;;;0.63;0.20;;;21.10;32.70;;;;;;5015371;28;20022;-55
2021/12/02 05:45:56;;;;;;;0.45;0.25;;;21.10;32.70;;;;;;5015062;28;20117;-51
2021/12/02 05:48:22;;;;;;;0.40;0.20;;;21.10;32.80;;;;;;5014825;28;20042;-52
2021/12/02 05:50:49;;;;;;;0.63;0.20;;;21.00;32.70;;;;;;5032835;28;20440;-49
2021/12/02 05:53:15;;;;;;;0.20;0.10;;;21.00;32.70;;;;;;5021861;28;20041;-57
2021/12/02 05:55:41;;;;;;;1.95;0.20;;;21.00;32.70;;;;;;5019140;28;20062;-54
2021/12/02 05:58:07;;;;;;;0.32;0.20;;;21.00;32.70;;;;;;5025875;28;20083;-56
2021/12/02 06:00:36;;;;;;;0.15;0.10;;;21.00;32.60;;;;;;5032433;28;20061;-51
2021/12/02 06:03:02;;;;;;;0.65;0.25;;;21.00;32.60;;;;;;5020979;28;20165;-52
2021/12/02 06:05:28;;;;;;;0.63;0.30;;;21.00;32.60;;;;;;5028559;28;20523;-52
2021/12/02 06:07:57;;;;;;;0.32;0.10;;;21.00;32.60;;;;;;5022168;28;20185;-50
2021/12/02 06:10:23;;;;;;;0.50;0.10;;;21.00;32.60;;;;;;5015505;28;20025;-56
2021/12/02 06:12:49;;;;;;;0.15;0.10;;;21.00;32.70;;;;;;5034147;28;20021;-52
2021/12/02 06:15:16;;;;;;;0.35;0.20;;;21.00;32.60;;;;;;5029948;28;20033;-55
2021/12/02 06:17:43;;;;;;;0.20;0.10;;;21.00;32.60;;;;;;5032840;28;20034;-53
2021/12/02 06:20:10;;;;;;;0.30;0.10;;;21.00;32.60;;;;;;5029052;28;20088;-51
2021/12/02 06:22:36;;;;;;;0.20;0.20;;;21.00;32.60;;;;;;5033429;28;20113;-52
2021/12/02 06:25:49;;;;;;;0.40;0.20;;;21.00;32.60;;;;;;5026197;28;20135;-55
2021/12/02 06:27:53;;;;;;;0.45;0.10;;;21.00;32.60;;;;;;5007598;28;20045;-50
2021/12/02 06:30:20;;;;;;;0.80;0.22;;;21.00;32.60;;;;;;5022987;28;20029;-47
2021/12/02 06:32:46;;;;;;;0.98;0.20;;;21.00;32.60;;;;;;5025251;28;20030;-52
2021/12/02 06:35:12;;;;;;;0.25;0.20;;;21.00;32.60;;;;;;5025670;28;20413;-52
2021/12/02 06:37:38;;;;;;;0.50;0.20;;;21.00;32.60;;;;;;5025699;28;20042;-55
2021/12/02 06:40:06;;;;;;;0.45;0.20;;;21.00;32.50;;;;;;5024685;28;20503;-53
2021/12/02 06:42:32;;;;;;;0.20;0.20;;;21.00;32.50;;;;;;5022375;28;20029;-53
2021/12/02 06:44:58;;;;;;;0.30;0.20;;;21.00;32.50;;;;;;5025005;28;20033;-53
2021/12/02 06:47:30;;;;;;;0.30;0.15;;;21.00;32.50;;;;;;5032762;28;20459;-51
2021/12/02 06:49:56;;;;;;;0.25;0.20;;;20.90;32.50;;;;;;5021440;28;20048;-54
2021/12/02 06:52:24;;;;;;;0.50;0.20;;;21.00;32.50;;;;;;5017811;28;20030;-52
2021/12/02 06:54:50;;;;;;;0.57;0.20;;;21.00;32.50;;;;;;5017809;28;20456;-52
2021/12/02 06:57:17;;;;;;;0.30;0.20;;;20.90;32.50;;;;;;5022121;28;20422;-51
2021/12/02 06:59:43;;;;;;;0.28;0.20;;;21.00;32.50;;;;;;5016339;28;20041;-52
2021/12/02 07:02:09;;;;;;;0.70;0.30;;;20.90;32.50;;;;;;5019118;28;20137;-51
2021/12/02 07:04:35;;;;;;;0.43;0.10;;;20.90;32.50;;;;;;5031147;28;20030;-52
2021/12/02 07:07:01;;;;;;;0.50;0.10;;;20.90;32.50;;;;;;5022865;28;20060;-53
2021/12/02 07:09:27;;;;;;;0.40;0.20;;;20.90;32.50;;;;;;5017604;28;20034;-54
2021/12/02 07:11:53;;;;;;;0.20;0.20;;;20.90;32.50;;;;;;5021994;28;20025;-51
2021/12/02 07:14:20;;;;;;;0.30;0.20;;;20.90;32.50;;;;;;5024633;28;20463;-48
2021/12/02 07:16:46;;;;;;;0.30;0.20;;;20.90;32.50;;;;;;5018465;28;20356;-53
2021/12/02 07:19:12;;;;;;;0.10;0.10;;;20.80;32.40;;;;;;5023450;28;20075;-50
2021/12/02 07:21:40;;;;;;;0.47;0.20;;;20.80;32.40;;;;;;5025785;28;20076;-56
2021/12/02 07:24:08;;;;;;;0.47;0.17;;;20.80;32.40;;;;;;5029585;28;20034;-51
2021/12/02 07:26:40;;;;;;;0.70;0.20;;;20.90;32.40;;;;;;5033253;28;20038;-51
2021/12/02 07:29:06;;;;;;;0.25;0.15;;;20.90;32.40;;;;;;5019884;28;20124;-53
2021/12/02 07:31:34;;;;;;;0.45;0.10;;;20.90;32.40;;;;;;5021872;28;20036;-51
2021/12/02 07:34:02;;;;;;;1.17;0.20;;;20.80;32.30;;;;;;5024219;28;20033;-53
2021/12/02 07:36:29;;;;;;;0.95;0.20;;;20.80;32.40;;;;;;5016859;28;20049;-51
2021/12/02 07:38:55;;;;;;;0.40;0.10;;;20.80;32.50;;;;;;5017311;28;20437;-48
2021/12/02 07:41:22;;;;;;;0.47;0.30;;;20.90;32.70;;;;;;5027891;28;20483;-51
2021/12/02 07:43:48;;;;;;;0.77;0.20;;;20.90;32.80;;;;;;5035612;28;20108;-50
2021/12/02 07:46:14;;;;;;;0.63;0.20;;;21.00;32.80;;;;;;5031467;28;20029;-55
2021/12/02 07:48:40;;;;;;;0.50;0.20;;;21.00;32.80;;;;;;5031955;28;20029;-56
2021/12/02 07:51:11;;;;;;;0.43;0.20;;;21.10;32.80;;;;;;5030383;28;20026;-57
2021/12/02 07:53:42;;;;;;;1.60;0.20;;;21.20;32.90;;;;;;5032213;28;20091;-58
2021/12/02 07:56:13;;;;;;;1.08;0.60;;;21.30;32.90;;;;;;5015874;28;20026;-56
2021/12/02 07:58:42;;;;;;;0.50;0.20;;;21.40;33.00;;;;;;5023611;28;20449;-51
2021/12/02 08:01:09;;;;;;;1.00;0.30;;;21.50;32.90;;;;;;5028905;28;20344;-52
2021/12/02 08:03:35;;;;;;;0.30;0.20;;;21.70;33.00;;;;;;5032643;28;20029;-55
2021/12/02 08:06:02;;;;;;;0.55;0.20;;;21.70;32.90;;;;;;5037942;28;20025;-58
2021/12/02 08:08:28;;;;;;;0.90;0.40;;;21.90;32.90;;;;;;5029035;28;20041;-54
2021/12/02 08:10:54;;;;;;;0.60;0.28;;;22.00;32.90;;;;;;5038175;28;20451;-54
2021/12/02 08:13:28;;;;;;;0.30;0.20;;;22.10;32.80;;;;;;5043345;28;20045;-49
2021/12/02 08:15:54;;;;;;;0.70;0.30;;;22.20;32.80;;;;;;5022065;28;20022;-53
2021/12/02 08:18:19;;;;;;;0.60;0.22;;;22.30;32.80;;;;;;5028138;28;20041;-53
2021/12/02 08:20:45;;;;;;;0.68;0.22;;;22.40;32.80;;;;;;5029714;28;20025;-54
2021/12/02 08:23:11;;;;;;;0.77;0.30;;;22.50;32.70;;;;;;5016255;28;20453;-52
2021/12/02 08:25:37;;;;;;;0.65;0.30;;;22.60;32.50;;;;;;5019119;28;20029;-53
2021/12/02 08:28:03;;;;;;;0.88;0.30;;;22.70;32.30;;;;;;5036189;28;20034;-58
2021/12/02 08:30:33;;;;;;;0.40;0.40;;;22.80;32.20;;;;;;5033010;28;20022;-53
2021/12/02 08:33:00;;;;;;;0.43;0.17;;;22.90;32.00;;;;;;5035730;28;20022;-49
2021/12/02 08:35:26;;;;;;;1.52;0.60;;;23.00;31.80;;;;;;5032511;28;20029;-54
2021/12/02 08:37:56;;;;;;;0.50;0.30;;;23.00;31.70;;;;;;5015498;28;20057;-51
2021/12/02 08:40:31;;;;;;;0.40;0.20;;;23.10;31.50;;;;;;5017951;28;20074;-54
2021/12/02 08:42:57;;;;;;;0.75;0.32;;;23.20;31.50;;;;;;5035290;28;20029;-51
2021/12/02 08:45:23;;;;;;;0.98;0.40;;;23.20;31.30;;;;;;5034228;28;20041;-51
2021/12/02 08:47:49;;;;;;;0.65;0.35;;;23.30;31.20;;;;;;5034975;28;20033;-52
2021/12/02 08:50:18;;;;;;;0.70;0.32;;;23.40;31.20;;;;;;5031535;28;20033;-52
2021/12/02 08:52:45;;;;;;;0.65;0.32;;;23.40;31.10;;;;;;5031276;28;20021;-51
2021/12/02 08:55:12;;;;;;;0.30;0.30;;;23.50;31.70;;;;;;5034493;28;20033;-53
2021/12/02 08:57:38;;;;;;;0.73;0.30;;;23.50;30.90;;;;;;5029003;28;20054;-51
2021/12/02 09:00:07;;;;;;;1.00;0.45;;;23.60;30.80;;;;;;5015245;28;20061;-52
2021/12/02 09:02:33;;;;;;;1.02;0.28;;;23.60;30.70;;;;;;5015325;28;20370;-55
2021/12/02 09:04:59;;;;;;;1.75;0.40;;;23.70;30.60;;;;;;5022431;28;20028;-57
2021/12/02 09:07:25;;;;;;;0.80;0.30;;;23.70;30.50;;;;;;5024622;28;20029;-54
2021/12/02 09:09:51;;;;;;;1.02;0.40;;;23.80;30.40;;;;;;5021571;28;20112;-54
2021/12/02 09:12:17;;;;;;;0.65;0.30;;;23.90;30.40;;;;;;5022854;28;20121;-53
2021/12/02 09:14:43;;;;;;;0.25;0.20;;;23.90;30.30;;;;;;5024717;28;20040;-54
2021/12/02 09:17:09;;;;;;;1.42;0.43;;;23.90;30.20;;;;;;5019073;28;20108;-55
2021/12/02 09:19:35;;;;;;;0.82;0.30;;;24.00;30.20;;;;;;5033854;28;20121;-54
2021/12/02 09:22:01;;;;;;;0.60;0.40;;;24.00;30.10;;;;;;5016299;28;20037;-51
2021/12/02 09:24:27;;;;;;;0.77;0.30;;;24.00;30.00;;;;;;5013151;28;20039;-52
2021/12/02 09:26:54;;;;;;;0.55;0.30;;;24.10;30.00;;;;;;5026252;28;20369;-52
2021/12/02 09:29:21;;;;;;;0.40;0.20;;;24.10;30.00;;;;;;5035073;28;20041;-53
2021/12/02 09:31:47;;;;;;;0.55;0.20;;;24.10;30.00;;;;;;5015904;28;20037;-48
2021/12/02 09:34:14;;;;;;;0.80;0.35;;;24.10;29.90;;;;;;5015210;28;20105;-52
2021/12/02 09:36:40;;;;;;;0.40;0.30;;;24.20;29.90;;;;;;5028846;28;20091;-52
2021/12/02 09:39:08;;;;;;;0.35;0.13;;;24.20;29.90;;;;;;5029243;28;20121;-51
2021/12/02 09:41:35;;;;;;;0.55;0.40;;;24.20;29.80;;;;;;5022529;28;20030;-54
2021/12/02 09:44:03;;;;;;;0.70;0.30;;;24.20;29.90;;;;;;5034232;28;20026;-52
2021/12/02 09:46:29;;;;;;;0.50;0.20;;;24.20;29.90;;;;;;5026085;28;20034;-52
2021/12/02 09:48:58;;;;;;;0.50;0.20;;;24.20;29.80;;;;;;5018782;28;20042;-52
2021/12/02 09:51:26;;;;;;;0.75;0.25;;;24.20;29.90;;;;;;5017072;28;20029;-51
2021/12/02 09:53:59;;;;;;;0.25;0.15;;;24.20;29.90;;;;;;5015009;28;20038;-50
2021/12/02 09:56:30;;;;;;;0.20;0.20;;;24.20;29.90;;;;;;5027080;28;20101;-53
2021/12/02 09:58:58;;;;;;;0.52;0.35;;;24.10;29.90;;;;;;5034675;28;20037;-51
2021/12/02 10:01:39;;;;;;;0.75;0.30;;;24.20;30.00;;;;;;5027392;28;20045;-53
2021/12/02 10:04:07;;;;;;;0.55;0.40;;;24.10;29.90;;;;;;5014636;28;20394;-55
2021/12/02 10:06:33;;;;;;;0.95;0.40;;;24.10;29.90;;;;;;5016831;28;20160;-55
2021/12/02 10:09:28;;;;;;;1.17;0.50;;;24.10;29.90;;;;;;5022931;28;20030;-53
2021/12/02 10:11:57;;;;;;;0.70;0.32;;;24.00;29.80;;;;;;5019323;28;20032;-52
2021/12/02 10:14:30;;;;;;;1.05;0.50;;;24.00;29.90;;;;;;5025481;28;20034;-53
2021/12/02 10:20:38;;;;;;;0.88;0.40;;;23.90;29.90;;;;;;5016721;28;20103;-56
2021/12/02 10:23:25;;;;;;;0.93;0.43;;;23.90;29.90;;;;;;5009224;28;20046;-54
2021/12/02 10:26:00;;;;;;;1.67;0.40;;;23.80;29.90;;;;;;5018721;28;20038;-54
2021/12/02 10:28:29;;;;;;;0.73;0.40;;;23.70;29.90;;;;;;5036568;28;20022;-53
2021/12/02 10:31:01;;;;;;;0.52;0.40;;;23.70;29.90;;;;;;5036912;28;20033;-52
2021/12/02 10:33:36;;;;;;;1.08;0.40;;;23.70;29.80;;;;;;5018623;28;20045;-56
2021/12/02 10:36:05;;;;;;;0.52;0.30;;;23.70;29.80;;;;;;5019510;28;20026;-53
2021/12/02 10:38:39;;;;;;;0.47;0.35;;;23.60;29.80;;;;;;5037220;28;20128;-55
2021/12/02 10:41:09;;;;;;;0.43;0.30;;;23.60;29.80;;;;;;5035659;28;20025;-51
2021/12/02 10:43:36;;;;;;;0.60;0.30;;;23.60;29.80;;;;;;5022052;28;20036;-52
2021/12/02 10:46:19;;;;;;;0.60;0.20;;;23.60;29.80;;;;;;5020316;28;20569;-54
2021/12/02 10:48:51;;;;;;;0.82;0.32;;;23.60;29.80;;;;;;5019889;28;20417;-56
2021/12/02 10:51:37;;;;;;;0.85;0.30;;;23.50;29.80;;;;;;5017072;28;20069;-54
2021/12/02 10:54:13;;;;;;;0.82;0.30;;;23.50;29.80;;;;;;5022668;28;20053;-49
2021/12/02 10:56:41;;;;;;;0.70;0.20;;;23.50;29.80;;;;;;5016907;28;20033;-50
2021/12/02 10:59:28;;;;;;;0.40;0.30;;;23.50;29.90;;;;;;5020432;28;20092;-50
2021/12/02 11:02:00;;;;;;;0.52;0.30;;;23.50;29.80;;;;;;5019994;28;20055;-52
2021/12/02 11:04:34;;;;;;;1.08;0.30;;;23.40;29.90;;;;;;5016627;28;20034;-54
2021/12/02 11:07:01;;;;;;;0.63;0.32;;;23.40;29.90;;;;;;5021505;28;20041;-52
2021/12/02 11:09:32;;;;;;;0.40;0.25;;;23.40;29.90;;;;;;5018688;28;20048;-51
2021/12/02 11:12:10;;;;;;;0.40;0.30;;;23.40;30.00;;;;;;5028721;28;20038;-51
2021/12/02 11:14:40;;;;;;;0.38;0.20;;;23.40;30.00;;;;;;5032871;28;20440;-53
2021/12/02 11:17:12;;;;;;;0.82;0.32;;;23.30;30.00;;;;;;5035765;28;20429;-55
2021/12/02 11:19:42;;;;;;;0.50;0.30;;;23.30;30.00;;;;;;5018257;28;20105;-53
2021/12/02 11:22:12;;;;;;;0.28;0.28;;;23.30;30.00;;;;;;5021769;28;20095;-52
2021/12/02 11:24:39;;;;;;;0.90;0.30;;;23.30;30.00;;;;;;5023126;28;20041;-51
2021/12/02 11:27:12;;;;;;;0.20;0.20;;;23.30;30.00;;;;;;5025522;28;20092;-53
2021/12/02 11:29:55;;;;;;;0.40;0.20;;;23.30;30.00;;;;;;5018007;28;20040;-50
2021/12/02 11:32:27;;;;;;;0.25;0.10;;;23.30;30.00;;;;;;5018203;28;20030;-52
2021/12/02 11:35:16;;;;;;;0.10;0.10;;;23.30;30.00;;;;;;5029098;28;20043;-51
2021/12/02 11:37:45;;;;;;;0.38;0.20;;;23.30;30.00;;;;;;5034522;28;20018;-57
2021/12/02 11:40:17;;;;;;;0.10;0.05;;;23.30;30.00;;;;;;5016820;28;20049;-52
2021/12/02 11:42:44;;;;;;;0.17;0.10;;;23.30;30.00;;;;;;5020191;28;20326;-53
2021/12/02 11:45:12;;;;;;;0.15;0.15;;;23.30;30.00;;;;;;5036768;28;20120;-53
2021/12/02 11:47:39;;;;;;;0.30;0.10;;;23.30;30.00;;;;;;5032595;28;20131;-57
2021/12/02 11:50:07;;;;;;;0.30;0.10;;;23.30;30.00;;;;;;5028887;28;20412;-53
2021/12/02 11:52:38;;;;;;;0.55;0.20;;;23.40;30.00;;;;;;5022287;28;20124;-51
2021/12/02 11:55:08;;;;;;;0.82;0.38;;;23.40;30.00;;;;;;5023247;28;20029;-54
2021/12/02 11:57:34;;;;;;;0.55;0.20;;;23.40;30.10;;;;;;5024276;28;20087;-53
2021/12/02 12:00:04;;;;;;;0.50;0.20;;;23.40;30.10;;;;;;5020298;28;20041;-55
2021/12/02 12:02:45;;;;;;;0.30;0.10;;;23.30;30.00;;;;;;5029809;28;20081;-54
2021/12/02 12:05:13;;;;;;;0.30;0.20;;;23.40;30.10;;;;;;5025117;28;20116;-56
2021/12/02 12:07:47;;;;;;;0.20;0.15;;;23.40;30.10;;;;;;5025801;28;20025;-52
2021/12/02 12:10:20;;;;;;;0.10;0.10;;;23.40;30.10;;;;;;5021581;28;20450;-54
2021/12/02 12:12:48;;;;;;;1.25;0.10;;;23.40;30.10;;;;;;5023843;28;20323;-52
2021/12/02 12:15:31;;;;;;;0.10;0.10;;;23.40;30.10;;;;;;5018624;28;20096;-57
2021/12/02 12:17:57;;;;;;;0.20;0.10;;;23.40;30.00;;;;;;5023191;28;20045;-56
2021/12/02 12:20:51;;;;;;;0.25;0.10;;;23.40;30.10;;;;;;5022677;28;20057;-54
2021/12/02 12:23:40;;;;;;;0.10;0.10;;;23.40;30.00;;;;;;5012607;28;20500;-53
2021/12/02 12:26:27;;;;;;;0.32;0.20;;;23.40;30.10;;;;;;5017985;28;20402;-51
2021/12/02 12:37:30;;;;;;;0.15;0.10;;;23.30;30.10;;;;;;4995904;28;20046;-55
2021/12/02 12:40:23;;;;;;;0.50;0.20;;;23.30;30.10;;;;;;5022365;28;20067;-58
2021/12/02 12:42:58;;;;;;;0.28;0.10;;;23.30;30.10;;;;;;5016061;28;20026;-52
2021/12/02 12:45:31;;;;;;;0.32;0.03;;;23.30;30.10;;;;;;5021940;28;20460;-55
2021/12/02 12:48:00;;;;;;;0.22;0.10;;;23.30;30.20;;;;;;5026233;28;20029;-51
2021/12/02 12:50:46;;;;;;;1.67;0.10;;;23.30;30.20;;;;;;5024975;28;20079;-54
2021/12/02 12:53:18;;;;;;;0.10;0.10;;;23.30;30.10;;;;;;5025288;28;20037;-53
2021/12/02 12:55:52;;;;;;;0.10;0.10;;;23.30;30.20;;;;;;5029837;28;20511;-57
2021/12/02 12:58:32;;;;;;;0.10;0.10;;;23.30;30.20;;;;;;5025173;28;20117;-58
2021/12/02 13:01:01;;;;;;;0.10;0.10;;;23.30;30.20;;;;;;5024868;28;20038;-52
2021/12/02 13:03:45;;;;;;;0.10;0.10;;;23.30;30.40;;;;;;5018851;28;20172;-56
2021/12/02 13:06:26;;;;;;;0.20;0.10;;;23.30;30.40;;;;;;5032818;28;20029;-52
2021/12/02 13:08:58;;;;;;;0.52;0.15;;;23.30;30.50;;;;;;5028110;28;20049;-56
2021/12/02 13:11:31;;;;;;;0.20;0.15;;;23.30;30.60;;;;;;5024839;28;20030;-56
2021/12/02 13:14:02;;;;;;;0.57;0.10;;;23.40;30.60;;;;;;5017708;28;20034;-55
2021/12/02 13:16:37;;;;;;;0.03;0.03;;;23.40;30.70;;;;;;5022640;28;20367;-56
2021/12/02 13:19:12;;;;;;;0.10;0.10;;;23.40;30.60;;;;;;5034640;28;20133;-60
2021/12/02 13:21:39;;;;;;;0.08;0.00;;;23.40;30.60;;;;;;5041160;28;20095;-58
2021/12/02 13:24:10;;;;;;;0.50;0.20;;;23.40;30.60;;;;;;5054174;28;20060;-56